Time;durP1;ratioP1;P1;durP2;ratioP2;P2;SDS_P1;SDS_P2;PMS_P1;PMS_P2;Temp;Humidity;BMP_temperature;BMP_pressure;BME280_temperature;BME280_humidity;BME280_pressure;Samples;Min_cycle;Max_cycle;Signal;HPM_P1;HPM_P2
2021/10/27 00:01:14;;;;;;;15.10;7.85;;;12.50;99.90;;;13.66;100.00;101173.69;6100024;23;20018;-79
2021/10/27 00:03:40;;;;;;;12.93;8.07;;;12.50;99.90;;;13.63;100.00;101184.84;6110305;23;20014;-80
2021/10/27 00:06:06;;;;;;;15.43;8.00;;;12.50;99.90;;;13.67;100.00;101186.56;6112598;23;20157;-83
2021/10/27 00:08:32;;;;;;;13.48;8.05;;;12.50;99.90;;;13.68;100.00;101181.72;6100459;23;20014;-80
2021/10/27 00:10:58;;;;;;;12.02;7.47;;;12.50;99.90;;;13.71;100.00;101187.44;6098257;23;19998;-80
2021/10/27 00:13:26;;;;;;;14.48;8.27;;;12.50;99.90;;;13.71;100.00;101190.22;6073560;23;20007;-80
2021/10/27 00:15:52;;;;;;;13.07;8.13;;;12.50;99.90;;;13.71;100.00;101195.84;6099924;23;20474;-80
2021/10/27 00:18:18;;;;;;;13.13;9.32;;;12.50;99.90;;;13.71;100.00;101195.03;6074497;23;20017;-80
2021/10/27 00:20:44;;;;;;;13.00;7.35;;;12.60;99.90;;;13.75;100.00;101187.50;6100479;23;20013;-81
2021/10/27 00:23:10;;;;;;;12.68;8.90;;;12.60;99.90;;;13.65;100.00;101179.66;6051561;23;20025;-80
2021/10/27 00:25:36;;;;;;;13.65;7.68;;;12.60;99.90;;;13.68;100.00;101176.94;6075020;23;20078;-82
2021/10/27 00:28:03;;;;;;;15.77;7.78;;;12.50;99.90;;;13.63;100.00;101182.03;6075692;23;20451;-81
2021/10/27 00:30:29;;;;;;;12.38;7.43;;;12.50;99.90;;;13.61;100.00;101190.78;6100604;23;20005;-80
2021/10/27 00:32:57;;;;;;;13.30;7.50;;;12.50;99.90;;;13.54;100.00;101190.66;6099048;23;20030;-79
2021/10/27 00:35:24;;;;;;;12.45;7.45;;;12.60;99.90;;;13.64;100.00;101183.66;6100442;23;20013;-80
2021/10/27 00:37:50;;;;;;;15.70;8.15;;;12.60;99.90;;;13.57;100.00;101181.50;6098676;23;20010;-80
2021/10/27 00:40:16;;;;;;;14.80;8.13;;;12.60;99.90;;;13.63;100.00;101193.25;6075366;23;20097;-82
2021/10/27 00:42:42;;;;;;;12.98;7.75;;;12.50;99.90;;;13.58;100.00;101187.94;6075138;23;20432;-82
2021/10/27 00:45:09;;;;;;;13.70;7.80;;;12.50;99.90;;;13.52;100.00;101184.56;6101746;23;20003;-80
2021/10/27 00:47:35;;;;;;;11.45;8.13;;;12.50;99.90;;;13.50;100.00;101180.50;6101840;23;20293;-80
2021/10/27 00:50:03;;;;;;;14.30;8.20;;;12.50;99.90;;;13.47;100.00;101184.06;6102372;23;20013;-80
2021/10/27 00:52:29;;;;;;;12.48;8.73;;;12.50;99.90;;;13.48;100.00;101186.50;6102304;23;20002;-82
2021/10/27 00:54:55;;;;;;;14.60;7.75;;;12.50;99.90;;;13.58;100.00;101191.53;6102009;23;20029;-81
2021/10/27 00:57:24;;;;;;;16.05;8.05;;;12.50;99.90;;;13.51;100.00;101179.34;6103102;23;20086;-81
2021/10/27 00:59:50;;;;;;;10.63;7.70;;;12.50;99.90;;;13.50;100.00;101180.50;6031385;23;20106;-82
2021/10/27 01:02:18;;;;;;;13.52;8.45;;;12.40;99.90;;;13.48;100.00;101185.69;6077445;23;20102;-80
2021/10/27 01:04:46;;;;;;;11.15;8.13;;;12.40;99.90;;;13.53;100.00;101185.41;6100743;23;20441;-81
2021/10/27 01:07:15;;;;;;;15.63;6.97;;;12.40;99.90;;;13.52;100.00;101190.19;6102916;23;20371;-83
2021/10/27 01:09:41;;;;;;;12.98;7.35;;;12.40;99.90;;;13.58;100.00;101190.75;6067262;23;20026;-79
2021/10/27 01:12:09;;;;;;;12.20;7.13;;;12.50;99.90;;;13.52;100.00;101192.19;6120574;23;20022;-80
2021/10/27 01:14:48;;;;;;;12.63;7.32;;;12.50;99.90;;;13.58;100.00;101199.16;6113400;23;20024;-80
2021/10/27 01:17:18;;;;;;;12.00;7.43;;;12.40;99.90;;;13.52;100.00;101194.97;6075711;23;20010;-81
2021/10/27 01:19:51;;;;;;;12.90;7.60;;;12.50;99.90;;;13.64;100.00;101197.69;6075978;23;20093;-82
2021/10/27 01:22:41;;;;;;;10.57;7.32;;;12.50;99.90;;;13.73;100.00;101195.50;6102741;23;20045;-80
2021/10/27 01:25:11;;;;;;;9.05;7.22;;;12.50;99.90;;;13.57;100.00;101192.72;6099515;23;20045;-81
2021/10/27 01:27:45;;;;;;;11.60;7.53;;;12.50;99.90;;;13.57;100.00;101187.13;6093546;23;20011;-82
2021/10/27 01:30:22;;;;;;;12.15;8.23;;;12.50;99.90;;;13.64;100.00;101192.09;6072950;23;20026;-81
2021/10/27 01:32:50;;;;;;;13.68;7.35;;;12.50;99.90;;;13.73;100.00;101187.91;6048025;23;20007;-80
2021/10/27 01:35:18;;;;;;;11.88;7.88;;;12.50;99.90;;;13.68;100.00;101181.72;6048028;23;20011;-81
2021/10/27 01:37:45;;;;;;;12.85;7.60;;;12.50;99.90;;;13.71;100.00;101181.00;6070751;23;20021;-81
2021/10/27 01:40:18;;;;;;;14.45;7.57;;;12.50;99.90;;;13.62;100.00;101181.22;6046968;23;20023;-81
2021/10/27 01:42:47;;;;;;;11.40;7.40;;;12.50;99.90;;;13.62;100.00;101177.59;6024278;23;20014;-82
2021/10/27 01:45:14;;;;;;;11.00;7.05;;;12.60;99.90;;;13.69;100.00;101177.75;6023798;23;20029;-82
2021/10/27 01:47:44;;;;;;;9.25;7.53;;;12.60;99.90;;;13.63;100.00;101179.22;6023991;23;20048;-81
2021/10/27 01:50:13;;;;;;;14.25;7.85;;;12.60;99.90;;;13.72;100.00;101180.63;6069647;23;20066;-81
2021/10/27 01:52:39;;;;;;;11.07;7.75;;;12.60;99.90;;;13.71;100.00;101170.59;6048697;23;20023;-80
2021/10/27 01:55:08;;;;;;;12.20;7.57;;;12.60;99.90;;;13.80;100.00;101176.00;6049034;23;20014;-82
2021/10/27 01:57:34;;;;;;;13.75;7.97;;;12.60;99.90;;;13.78;100.00;101174.72;6071937;23;20098;-79
2021/10/27 01:59:59;;;;;;;13.15;7.68;;;12.70;99.90;;;13.85;100.00;101172.91;6073096;23;20029;-81
2021/10/27 02:02:25;;;;;;;9.98;7.40;;;12.70;99.90;;;13.84;100.00;101173.28;6074399;23;20007;-83
2021/10/27 02:04:52;;;;;;;11.85;7.50;;;12.70;99.90;;;13.84;100.00;101170.47;6073688;23;20438;-82
2021/10/27 02:07:17;;;;;;;13.05;7.45;;;12.70;99.90;;;13.82;100.00;101167.22;6074595;23;20198;-82
2021/10/27 02:09:43;;;;;;;13.98;7.78;;;12.70;99.90;;;13.86;100.00;101166.13;6072020;23;20006;-82
2021/10/27 02:12:09;;;;;;;11.45;7.65;;;12.70;99.90;;;13.81;100.00;101160.78;6069967;23;20122;-83
2021/10/27 02:14:36;;;;;;;13.20;7.65;;;12.70;99.90;;;13.78;100.00;101155.91;6071890;23;20034;-83
2021/10/27 02:17:02;;;;;;;13.40;8.57;;;12.70;99.90;;;13.82;100.00;101156.78;6070755;23;20091;-80
2021/10/27 02:19:28;;;;;;;13.18;7.10;;;12.70;99.90;;;13.93;100.00;101171.06;6069518;23;20385;-80
2021/10/27 02:21:56;;;;;;;11.38;6.95;;;12.70;99.90;;;13.92;100.00;101164.63;6071758;23;20010;-81
2021/10/27 02:24:22;;;;;;;10.73;7.35;;;12.70;99.90;;;13.87;100.00;101159.28;6072811;23;20349;-81
2021/10/27 02:26:48;;;;;;;11.95;7.07;;;12.60;99.90;;;13.87;100.00;101164.13;6046053;23;20003;-81
2021/10/27 02:29:14;;;;;;;12.65;7.88;;;12.70;99.90;;;13.87;100.00;101162.09;6092310;23;20065;-82
2021/10/27 02:31:40;;;;;;;9.00;6.93;;;12.70;99.90;;;13.84;100.00;101162.84;6071944;23;20034;-80
2021/10/27 02:34:06;;;;;;;11.07;6.95;;;12.70;99.90;;;13.88;100.00;101163.75;6098077;23;20009;-81
2021/10/27 02:36:32;;;;;;;14.43;7.25;;;12.70;99.90;;;13.83;100.00;101161.22;6097569;23;20006;-79
2021/10/27 02:38:59;;;;;;;11.40;6.32;;;12.80;99.90;;;13.84;100.00;101162.84;6071459;23;20014;-78
2021/10/27 02:41:26;;;;;;;11.18;6.93;;;12.80;99.90;;;13.93;100.00;101148.59;6097429;23;20448;-81
2021/10/27 02:43:52;;;;;;;12.82;7.20;;;12.80;99.90;;;13.94;100.00;101159.44;6098255;23;20081;-78
2021/10/27 02:46:18;;;;;;;9.55;6.43;;;12.80;99.90;;;13.98;100.00;101154.75;6097793;23;20046;-80
2021/10/27 02:48:45;;;;;;;9.82;6.38;;;12.80;99.90;;;14.03;100.00;101159.25;6098165;23;20006;-78
2021/10/27 02:51:11;;;;;;;11.27;6.57;;;12.80;99.90;;;14.12;100.00;101157.03;6072028;23;20033;-81
2021/10/27 02:53:37;;;;;;;12.55;6.32;;;12.90;99.90;;;14.43;100.00;101158.88;6097846;23;20464;-78
2021/10/27 02:56:03;;;;;;;10.88;6.45;;;12.90;99.90;;;14.56;100.00;101160.34;6098897;23;20187;-79
2021/10/27 02:58:29;;;;;;;11.48;6.07;;;12.90;99.90;;;14.54;100.00;101154.28;6096483;23;20017;-78
2021/10/27 03:00:56;;;;;;;13.23;6.68;;;12.90;99.90;;;14.60;100.00;101161.22;6098152;23;20014;-79
2021/10/27 03:03:22;;;;;;;11.13;5.85;;;12.90;99.90;;;14.41;100.00;101161.25;6099585;23;20421;-81
2021/10/27 03:05:48;;;;;;;11.95;6.18;;;12.90;99.90;;;14.56;100.00;101171.59;6097996;23;20011;-79
2021/10/27 03:08:14;;;;;;;10.85;6.40;;;13.00;99.90;;;14.24;100.00;101166.13;6097769;23;20401;-78
2021/10/27 03:10:39;;;;;;;10.40;6.38;;;13.00;99.90;;;14.22;100.00;101170.50;6099652;23;20013;-80
2021/10/27 03:13:05;;;;;;;12.30;6.82;;;13.00;99.90;;;14.21;100.00;101166.88;6099956;23;20069;-80
2021/10/27 03:15:31;;;;;;;16.17;7.47;;;13.00;99.90;;;14.13;100.00;101172.69;6099364;23;20017;-80
2021/10/27 03:17:57;;;;;;;9.02;6.05;;;13.00;99.90;;;14.20;100.00;101173.66;6100445;23;20420;-80
2021/10/27 03:20:23;;;;;;;16.23;7.47;;;13.10;99.90;;;14.26;100.00;101171.34;6101320;23;20006;-81
2021/10/27 03:22:49;;;;;;;11.50;6.78;;;13.10;99.90;;;14.18;100.00;101167.59;6100139;23;20070;-80
2021/10/27 03:25:15;;;;;;;12.82;6.45;;;13.10;99.90;;;14.25;100.00;101166.94;6099583;23;20021;-80
2021/10/27 03:27:41;;;;;;;14.30;6.50;;;13.10;99.90;;;14.31;100.00;101170.25;6101009;23;20329;-80
2021/10/27 03:30:07;;;;;;;10.93;6.53;;;13.10;99.90;;;14.23;100.00;101175.72;6100273;23;20007;-79
2021/10/27 03:32:33;;;;;;;11.48;6.10;;;13.10;99.90;;;14.35;100.00;101176.81;6102569;23;20006;-80
2021/10/27 03:34:59;;;;;;;10.88;6.88;;;13.10;99.90;;;14.34;100.00;101177.97;6076471;23;20070;-82
2021/10/27 03:37:25;;;;;;;10.35;5.97;;;13.10;99.90;;;14.32;100.00;101178.31;6111019;23;20021;-82
2021/10/27 03:39:51;;;;;;;12.07;7.13;;;13.10;99.90;;;14.36;100.00;101176.41;6121176;23;20021;-81
2021/10/27 03:42:18;;;;;;;9.40;6.85;;;13.10;99.90;;;14.32;100.00;101180.31;6119970;23;20058;-82
2021/10/27 03:44:44;;;;;;;14.55;6.78;;;13.10;99.90;;;14.36;100.00;101179.22;6099437;23;20065;-80
2021/10/27 03:47:10;;;;;;;16.30;7.15;;;13.10;99.90;;;14.32;100.00;101185.94;6099329;23;20109;-79
2021/10/27 03:49:38;;;;;;;8.80;6.45;;;13.10;99.90;;;14.30;100.00;101188.28;6099618;23;20105;-78
2021/10/27 03:52:05;;;;;;;13.10;6.72;;;13.10;99.90;;;14.26;100.00;101179.78;6099491;23;20057;-78
2021/10/27 03:54:31;;;;;;;14.38;7.47;;;13.10;99.90;;;14.31;100.00;101167.44;6073343;23;20038;-81
2021/10/27 03:56:57;;;;;;;14.00;7.13;;;13.20;99.90;;;14.36;100.00;101182.03;6098114;23;20006;-77
2021/10/27 03:59:23;;;;;;;11.57;6.57;;;13.10;99.90;;;14.38;100.00;101179.69;6098792;23;20010;-77
2021/10/27 04:01:49;;;;;;;9.02;6.53;;;13.20;99.90;;;14.68;100.00;101185.47;6099583;23;20011;-80
2021/10/27 04:04:14;;;;;;;10.32;6.63;;;13.20;99.90;;;14.71;100.00;101179.09;6097024;23;20392;-78
2021/10/27 04:06:41;;;;;;;9.75;6.90;;;13.20;99.90;;;14.78;100.00;101185.66;6098631;23;20022;-80
2021/10/27 04:09:07;;;;;;;13.48;7.43;;;13.20;99.90;;;14.95;99.66;101180.75;6099306;23;20013;-80
2021/10/27 04:11:33;;;;;;;15.15;7.80;;;13.20;99.90;;;14.87;100.00;101184.59;6073787;23;20038;-79
2021/10/27 04:13:59;;;;;;;13.98;6.97;;;13.20;99.90;;;14.82;100.00;101174.50;6097711;23;20007;-78
2021/10/27 04:16:25;;;;;;;11.90;6.10;;;13.20;99.90;;;14.84;100.00;101180.53;6098035;23;20076;-78
2021/10/27 04:18:50;;;;;;;12.55;6.85;;;13.20;99.90;;;14.93;99.72;101175.47;6099603;23;20006;-81
2021/10/27 04:21:16;;;;;;;8.48;5.68;;;13.20;99.90;;;14.93;99.41;101172.66;6099209;23;20030;-79
2021/10/27 04:23:42;;;;;;;8.63;5.95;;;13.20;99.90;;;14.85;99.57;101179.38;6074171;23;20010;-78
2021/10/27 04:26:08;;;;;;;9.98;5.03;;;13.20;99.90;;;14.94;98.87;101168.66;6099583;23;20097;-78
2021/10/27 04:28:34;;;;;;;14.48;5.78;;;13.30;99.90;;;14.83;99.27;101180.94;6097512;23;20057;-78
2021/10/27 04:31:02;;;;;;;11.15;6.53;;;13.30;99.90;;;14.85;99.16;101186.97;6097959;23;20014;-80
2021/10/27 04:33:29;;;;;;;9.07;6.10;;;13.30;99.90;;;14.53;100.00;101180.75;6096415;23;20022;-80
2021/10/27 04:35:55;;;;;;;11.50;6.05;;;13.30;99.90;;;14.46;100.00;101184.25;6096018;23;20029;-79
2021/10/27 04:38:22;;;;;;;13.20;5.60;;;13.30;99.90;;;14.39;100.00;101184.09;6095833;23;20015;-79
2021/10/27 04:40:50;;;;;;;9.43;5.03;;;13.30;99.90;;;14.38;100.00;101185.31;6097116;23;20114;-80
2021/10/27 04:43:16;;;;;;;12.07;5.30;;;13.30;99.90;;;14.37;100.00;101175.25;6024296;23;20025;-80
2021/10/27 04:45:43;;;;;;;8.80;5.07;;;13.30;99.90;;;14.45;100.00;101179.00;6096288;23;20459;-79
2021/10/27 04:48:10;;;;;;;7.15;5.35;;;13.20;99.90;;;14.38;100.00;101178.88;6096963;23;20003;-80
2021/10/27 04:50:36;;;;;;;12.80;5.32;;;13.30;99.90;;;14.36;100.00;101178.41;6097676;23;20011;-80
2021/10/27 04:53:02;;;;;;;10.05;5.57;;;13.30;99.90;;;14.24;100.00;101171.75;6097357;23;20011;-79
2021/10/27 04:55:28;;;;;;;16.15;5.70;;;13.20;99.90;;;14.27;100.00;101176.63;6097160;23;20034;-80
2021/10/27 04:57:54;;;;;;;11.52;5.10;;;13.20;99.90;;;14.25;100.00;101176.16;6097077;23;20017;-81
2021/10/27 05:00:19;;;;;;;8.18;4.75;;;13.20;99.90;;;14.22;100.00;101176.09;6096872;23;20494;-80
2021/10/27 05:02:45;;;;;;;11.93;5.57;;;13.20;99.90;;;14.26;100.00;101177.78;6071436;23;20444;-79
2021/10/27 05:05:12;;;;;;;8.40;4.57;;;13.20;99.90;;;14.31;100.00;101182.31;6097779;23;20096;-79
2021/10/27 05:07:43;;;;;;;11.18;4.43;;;13.20;99.90;;;14.26;100.00;101185.41;6071424;23;20014;-80
2021/10/27 05:10:09;;;;;;;12.40;4.97;;;13.20;99.90;;;14.31;100.00;101189.94;6097045;23;20007;-79
2021/10/27 05:12:35;;;;;;;10.73;4.30;;;13.20;99.90;;;14.35;100.00;101197.28;6097059;23;20010;-81
2021/10/27 05:15:01;;;;;;;11.85;4.53;;;13.20;99.90;;;14.33;100.00;101193.16;6097849;23;20006;-79
2021/10/27 05:17:27;;;;;;;8.38;4.18;;;13.30;99.90;;;14.37;100.00;101189.28;6100487;23;20025;-80
2021/10/27 05:19:53;;;;;;;11.60;4.57;;;13.30;99.90;;;14.39;100.00;101188.91;6100758;23;20014;-81
2021/10/27 05:22:19;;;;;;;8.70;4.30;;;13.20;99.90;;;14.42;100.00;101197.41;6097880;23;20007;-80
2021/10/27 05:24:45;;;;;;;9.60;4.22;;;13.30;99.90;;;14.35;100.00;101197.28;6099323;23;20014;-80
2021/10/27 05:27:11;;;;;;;9.02;4.30;;;13.20;99.90;;;14.31;100.00;101193.56;6100465;23;20010;-79
2021/10/27 05:29:38;;;;;;;7.55;3.72;;;13.30;99.90;;;14.41;99.97;101194.97;6074385;23;20007;-80
2021/10/27 05:32:06;;;;;;;12.43;3.70;;;13.30;99.90;;;14.39;99.57;101197.34;6099208;23;20026;-78
2021/10/27 05:34:33;;;;;;;6.35;3.40;;;13.30;99.90;;;14.45;99.07;101196.66;6073809;23;20006;-79
2021/10/27 05:36:59;;;;;;;8.85;3.72;;;13.30;99.90;;;14.39;99.44;101189.72;6099546;23;20017;-79
2021/10/27 05:39:26;;;;;;;10.57;3.92;;;13.30;99.90;;;14.34;99.59;101190.03;6073768;23;20488;-81
2021/10/27 05:41:53;;;;;;;8.50;3.80;;;13.30;99.90;;;14.27;99.56;101185.03;6099160;23;20014;-80
2021/10/27 05:44:21;;;;;;;13.43;3.83;;;13.30;99.90;;;14.45;98.98;101195.88;6100548;23;20010;-80
2021/10/27 05:46:51;;;;;;;9.05;3.30;;;13.30;99.90;;;14.45;98.58;101188.22;6099634;23;20018;-79
2021/10/27 05:51:50;;;;;;;10.82;3.40;;;13.30;99.90;;;14.25;99.56;101195.03;6109299;23;20505;-79
2021/10/27 05:57:03;;;;;;;7.35;2.85;;;13.30;99.90;;;14.45;98.72;101198.69;6098920;23;20404;-79
2021/10/27 05:59:29;;;;;;;8.38;2.70;;;13.20;99.90;;;14.41;98.63;101201.44;6099144;23;20023;-81
2021/10/27 06:01:55;;;;;;;8.82;3.00;;;13.30;99.90;;;14.45;98.06;101205.09;6098016;23;20007;-80
2021/10/27 06:04:20;;;;;;;10.85;3.40;;;13.20;99.90;;;14.35;98.47;101208.53;6098854;23;20010;-81
2021/10/27 06:06:47;;;;;;;10.57;3.50;;;13.30;99.90;;;14.43;98.33;101218.72;6096942;23;20011;-79
2021/10/27 06:09:15;;;;;;;7.32;3.10;;;13.30;99.90;;;14.38;98.19;101212.59;6097805;23;20038;-80
2021/10/27 06:11:42;;;;;;;13.98;3.50;;;13.20;99.90;;;14.45;98.18;101212.75;6073652;23;20062;-78
2021/10/27 06:14:09;;;;;;;5.57;2.88;;;13.30;99.90;;;14.42;98.04;101214.28;6097940;23;20007;-78
2021/10/27 06:16:35;;;;;;;7.57;3.28;;;13.30;99.90;;;14.49;97.38;101222.03;6100466;23;20041;-81
2021/10/27 06:19:01;;;;;;;8.05;3.13;;;13.30;99.90;;;14.43;97.71;101223.53;6098541;23;20017;-82
2021/10/27 06:21:27;;;;;;;6.40;3.08;;;13.30;99.90;;;14.43;97.54;101224.34;6098281;23;20010;-82
2021/10/27 06:23:54;;;;;;;7.03;2.67;;;13.30;99.90;;;14.40;97.70;101216.66;6072423;23;20014;-79
2021/10/27 06:26:23;;;;;;;8.70;3.08;;;13.30;99.90;;;14.43;97.64;101217.91;6073035;23;20014;-80
2021/10/27 06:29:10;;;;;;;10.70;2.78;;;13.30;99.90;;;14.45;97.16;101221.19;6067952;23;20352;-81
2021/10/27 06:31:49;;;;;;;4.47;2.45;;;13.30;99.90;;;14.39;97.74;101231.88;6071515;23;20011;-80
2021/10/27 06:34:37;;;;;;;5.22;2.80;;;13.30;99.90;;;14.38;98.40;101235.88;6071813;23;20011;-81
2021/10/27 06:37:26;;;;;;;6.00;2.78;;;13.30;99.90;;;14.29;98.46;101235.25;6048578;23;20018;-80
2021/10/27 06:48:07;;;;;;;8.05;2.85;;;13.20;99.90;;;14.36;98.56;101240.22;6077068;23;20092;-80
2021/10/27 06:50:40;;;;;;;5.35;2.50;;;13.30;99.90;;;14.31;98.80;101235.69;6074859;23;20050;-80
2021/10/27 06:53:06;;;;;;;4.47;2.80;;;13.30;99.90;;;14.34;98.43;101236.97;6075224;23;20449;-80
2021/10/27 06:55:36;;;;;;;11.27;3.10;;;13.30;99.90;;;14.39;98.01;101253.53;6050456;23;20083;-82
2021/10/27 06:58:02;;;;;;;7.97;2.72;;;13.30;99.90;;;14.36;98.06;101243.84;6049768;23;20065;-81
2021/10/27 07:00:46;;;;;;;6.57;2.65;;;13.30;99.90;;;14.40;97.43;101252.38;6076284;23;20007;-83
2021/10/27 07:16:38;;;;;;;6.10;2.55;;;13.40;99.90;;;14.50;96.68;101255.41;6076213;23;20017;-78
2021/10/27 07:19:04;;;;;;;5.85;2.45;;;13.40;99.90;;;14.53;96.53;101267.91;6075522;23;20345;-77
2021/10/27 07:21:31;;;;;;;4.63;2.47;;;13.50;99.90;;;14.56;96.39;101272.78;6077336;23;20018;-80
2021/10/27 07:23:57;;;;;;;6.80;2.30;;;13.50;99.90;;;14.65;95.79;101273.38;6074772;23;20436;-82
2021/10/27 07:26:24;;;;;;;7.00;2.42;;;13.50;99.90;;;14.63;95.54;101270.13;6077045;23;20066;-79
2021/10/27 07:28:53;;;;;;;8.10;2.40;;;13.50;99.90;;;14.65;95.16;101273.38;6050208;23;20071;-81
2021/10/27 07:31:19;;;;;;;8.40;2.50;;;13.50;99.90;;;14.59;95.56;101277.66;6074493;23;20011;-81
2021/10/27 07:41:54;;;;;;;7.93;1.95;;;13.70;99.90;;;14.78;94.83;101272.84;6077675;23;20073;-80
2021/10/27 07:44:21;;;;;;;6.53;2.38;;;13.60;99.90;;;14.63;95.03;101273.75;6052272;23;20066;-79
2021/10/27 07:46:47;;;;;;;6.20;2.05;;;13.60;99.90;;;14.82;94.09;101272.09;6054242;23;20014;-80
2021/10/27 07:49:14;;;;;;;5.13;1.75;;;13.70;99.90;;;14.81;93.85;101276.09;6077312;23;20089;-83
2021/10/27 07:51:41;;;;;;;6.97;2.15;;;13.70;99.90;;;14.97;93.02;101279.63;6027580;23;20011;-80
2021/10/27 07:54:10;;;;;;;8.32;2.15;;;13.80;99.90;;;14.93;93.36;101276.72;6076726;23;20078;-79
2021/10/27 07:56:37;;;;;;;5.05;2.30;;;13.80;99.90;;;15.00;93.07;101284.50;6077136;23;20006;-81
2021/10/27 07:59:03;;;;;;;3.67;2.33;;;13.80;99.90;;;14.98;93.30;101286.88;6078284;23;20020;-79
2021/10/27 08:01:29;;;;;;;6.53;2.17;;;13.90;99.90;;;14.90;93.35;101285.91;6082933;23;20111;-80
2021/10/27 08:03:58;;;;;;;7.07;2.58;;;13.90;99.90;;;14.90;93.33;101285.13;6080888;23;20006;-79
2021/10/27 08:06:24;;;;;;;5.25;2.10;;;13.90;99.90;;;15.01;92.99;101297.38;6054990;23;20070;-81
2021/10/27 08:08:50;;;;;;;6.43;2.30;;;13.90;99.90;;;14.95;92.45;101308.13;6081726;23;20007;-81
2021/10/27 08:11:16;;;;;;;6.57;2.42;;;13.90;99.90;;;14.99;92.81;101299.78;6065701;23;20038;-80
2021/10/27 08:13:44;;;;;;;5.15;2.33;;;13.90;99.90;;;14.98;92.59;101296.13;6085322;23;20017;-79
2021/10/27 08:16:12;;;;;;;6.22;2.50;;;13.90;99.90;;;14.93;92.55;101293.59;6080404;23;20007;-80
2021/10/27 08:18:38;;;;;;;5.70;2.40;;;13.80;99.90;;;14.85;92.58;101302.28;6078531;23;20492;-78
2021/10/27 08:21:07;;;;;;;5.00;2.70;;;13.80;99.90;;;14.81;93.11;101299.41;6078329;23;20018;-80
2021/10/27 08:23:36;;;;;;;7.13;2.35;;;13.80;99.90;;;14.77;93.60;101304.94;6053973;23;20150;-79
2021/10/27 08:26:07;;;;;;;10.23;2.85;;;13.80;99.90;;;14.91;92.89;101295.19;6078977;23;20010;-79
2021/10/27 08:28:44;;;;;;;7.45;2.30;;;13.90;99.90;;;14.84;92.89;101306.28;6094133;23;20006;-78
2021/10/27 08:31:22;;;;;;;6.07;2.50;;;13.90;99.90;;;14.94;92.74;101302.88;6082388;23;20026;-79
2021/10/27 08:36:19;;;;;;;2.97;2.25;;;13.80;99.90;;;14.85;93.31;101297.47;6090818;23;20025;-78
2021/10/27 08:38:46;;;;;;;11.43;2.90;;;13.90;99.90;;;14.87;93.44;101297.09;6078660;23;20019;-80
2021/10/27 08:41:14;;;;;;;9.48;2.35;;;13.90;99.90;;;15.03;92.20;101306.25;6102955;23;20044;-78
2021/10/27 08:43:41;;;;;;;7.50;2.60;;;13.90;99.90;;;15.01;93.20;101311.44;6102481;23;20070;-78
2021/10/27 08:46:11;;;;;;;6.13;2.63;;;13.90;99.90;;;14.87;93.36;101314.78;6100565;23;20015;-79
2021/10/27 08:48:43;;;;;;;7.15;2.90;;;13.90;99.90;;;14.82;93.24;101315.09;6077535;23;20352;-80
2021/10/27 08:51:12;;;;;;;4.82;2.42;;;13.90;99.90;;;14.76;93.89;101317.41;6101061;23;20051;-79
2021/10/27 08:53:38;;;;;;;7.43;2.55;;;13.80;99.90;;;14.85;93.72;101311.53;6103796;23;20014;-80
2021/10/27 08:56:05;;;;;;;7.15;2.63;;;13.90;99.90;;;14.74;93.12;101313.31;6100812;23;20452;-80
2021/10/27 08:58:41;;;;;;;5.78;2.45;;;13.80;99.90;;;14.70;93.24;101318.06;6102590;23;20061;-79
2021/10/27 09:38:57;;;;;;;7.50;2.83;;;14.20;99.90;;;15.43;89.21;101339.59;6082611;23;20021;-82
2021/10/27 10:04:28;;;;;;;5.60;2.72;;;14.10;99.90;;;15.11;89.53;101324.91;6101750;23;20051;-79
2021/10/27 10:07:05;;;;;;;9.25;3.50;;;14.10;99.90;;;15.11;90.01;101333.34;6103696;23;20130;-80
2021/10/27 10:09:37;;;;;;;5.40;3.05;;;14.10;99.90;;;15.23;88.44;101331.19;6076638;23;20013;-77
2021/10/27 10:12:04;;;;;;;6.07;2.92;;;14.10;99.90;;;15.24;88.35;101329.19;6077872;23;20034;-79
2021/10/27 10:14:31;;;;;;;8.00;2.92;;;14.10;99.90;;;15.27;88.97;101328.44;6053960;23;20010;-81
2021/10/27 10:17:03;;;;;;;5.97;3.30;;;14.10;99.90;;;15.28;88.82;101332.91;6101817;23;20019;-78
2021/10/27 10:19:41;;;;;;;6.22;3.05;;;14.20;99.90;;;15.28;88.37;101316.78;6101790;23;20077;-78
2021/10/27 10:22:37;;;;;;;5.80;2.75;;;14.20;99.90;;;15.29;88.55;101326.88;6102477;23;20025;-78
2021/10/27 10:25:32;;;;;;;12.47;2.70;;;14.20;99.90;;;15.25;88.66;101328.81;6054839;23;20022;-80
2021/10/27 10:28:18;;;;;;;7.00;2.45;;;14.20;99.90;;;15.36;88.20;101322.56;6052198;23;20025;-79
2021/10/27 10:30:54;;;;;;;6.03;2.63;;;14.30;99.90;;;15.26;88.01;101316.38;6102642;23;20336;-77
2021/10/27 10:33:35;;;;;;;;;;;14.30;99.90;;;15.36;88.19;101328.19;6079440;23;20007;-79
2021/10/27 11:25:30;;;;;;;4.78;2.00;;;17.30;99.90;;;18.16;73.17;101286.22;6080145;23;20479;-79
2021/10/27 11:37:19;;;;;;;8.13;1.77;;;17.50;99.90;;;18.29;72.63;101287.53;6089800;23;20065;-80
2021/10/27 11:39:44;;;;;;;4.10;1.60;;;17.30;99.90;;;18.94;72.35;101272.47;6101013;23;20017;-79
2021/10/27 11:45:10;;;;;;;3.65;1.40;;;17.80;99.90;;;19.41;68.79;101269.34;6110135;23;20021;-81
2021/10/27 11:47:41;;;;;;;2.47;1.25;;;18.00;99.90;;;19.75;68.59;101260.41;6098023;23;20010;-80
2021/10/27 11:50:18;;;;;;;6.82;1.90;;;18.20;99.90;;;19.51;68.13;101261.25;6074474;23;20042;-81
2021/10/27 11:52:52;;;;;;;6.75;1.80;;;18.20;99.90;;;19.59;68.43;101254.34;6075200;23;20089;-82
2021/10/27 11:55:21;;;;;;;6.00;1.50;;;18.30;99.90;;;18.78;69.50;101258.66;6049205;23;20016;-79
2021/10/27 11:57:55;;;;;;;5.85;1.63;;;17.90;99.90;;;18.94;69.88;101249.81;6073210;23;20038;-82
2021/10/27 12:00:29;;;;;;;11.32;4.95;;;17.90;99.90;;;19.28;69.41;101242.59;6074425;23;20030;-81
2021/10/27 12:03:08;;;;;;;3.95;1.63;;;17.90;99.90;;;19.18;67.73;101248.22;6098661;23;20077;-81
2021/10/27 12:08:35;;;;;;;5.07;1.85;;;17.80;99.90;;;19.08;69.97;101249.03;6104231;23;20142;-81
2021/10/27 12:11:17;;;;;;;2.40;1.38;;;17.90;99.90;;;19.12;69.56;101238.53;6098265;23;20037;-80
2021/10/27 12:14:12;;;;;;;4.57;1.55;;;17.80;99.90;;;19.06;69.15;101232.44;6076005;23;20010;-82
2021/10/27 12:19:31;;;;;;;6.22;1.58;;;17.80;99.90;;;18.70;70.49;101231.56;6101321;23;20458;-81
2021/10/27 12:22:04;;;;;;;4.57;1.85;;;17.70;99.90;;;18.65;70.51;101226.28;6050800;23;20098;-81
2021/10/27 12:24:36;;;;;;;3.63;1.63;;;17.60;99.90;;;18.85;70.82;101221.06;6073423;23;20097;-79
2021/10/27 12:27:30;;;;;;;8.70;1.40;;;17.70;99.90;;;19.18;69.83;101237.72;6099604;23;20021;-81
2021/10/27 12:30:04;;;;;;;3.67;1.73;;;17.90;99.90;;;19.24;69.28;101229.63;6097831;23;20018;-81
2021/10/27 12:32:33;;;;;;;4.68;1.38;;;17.90;99.90;;;19.54;68.38;101223.59;6074036;23;20006;-81
2021/10/27 12:35:14;;;;;;;3.40;1.50;;;18.10;99.90;;;19.69;66.47;101217.50;6073497;23;20007;-82
2021/10/27 12:37:50;;;;;;;2.67;1.42;;;18.30;99.90;;;19.81;66.11;101216.31;6075392;23;20014;-80
2021/10/27 12:40:32;;;;;;;3.33;1.23;;;18.40;99.90;;;19.67;66.64;101219.97;6077638;23;20015;-82
2021/10/27 12:43:14;;;;;;;3.90;1.58;;;18.40;99.90;;;19.31;67.24;101212.66;6086963;23;20022;-81
2021/10/27 12:45:50;;;;;;;4.53;1.45;;;18.30;99.90;;;19.60;65.92;101214.28;6089082;23;20030;-81
2021/10/27 12:48:45;;;;;;;4.35;1.42;;;18.30;99.90;;;19.62;65.63;101211.06;6107805;23;20007;-81
2021/10/27 12:51:10;;;;;;;4.72;1.25;;;18.30;99.90;;;19.56;66.32;101202.13;6098283;23;20014;-79
2021/10/27 12:53:50;;;;;;;4.45;1.33;;;18.40;99.90;;;20.10;66.14;101208.53;6074792;23;20049;-80
2021/10/27 12:56:29;;;;;;;7.85;1.83;;;18.60;99.90;;;19.67;66.03;101199.31;6074777;23;20333;-80
2021/10/27 12:59:06;;;;;;;3.30;1.10;;;18.50;99.90;;;19.66;64.91;101206.19;6074936;23;20038;-81